Decoded Metar for KLLJ (CHALLIS in ID, USA) (IATA:LLJ) | Meteo·Mobile Aviation Weather
aviador You're here:

KLLJ Decoded Metar

CHALLIS in ID, USA
Report Time2018-11-19 08:55:00
UTC Time2018-11-19 09:50:41
Flight Rules vfr VFR
WindCalm
Visibility9999 m
Phenomena:N/A
Clouds:N/A
Expected CloudBase > 2,000 ft AGL from Temp-Dew spread
CeilingNone
Temp-9°C (ISA -14)
Dew Point-14°C (67% RH)
AAT-12.3°C
QNH1026 hPa
Density Alt2,920 ft
Elevation5,039 ft
Report Wrong Elevation
Raw Report
KLLJ 190855Z AUTO 00000KT 10SM CLR M09/M14 A3029 RMK AO2 SLP291
T10891144 53004=

Extra information for KLLJ:More info

Metar Taf Metar & Taf Last 4 Metars F.Rules Stats Wind Profile Meteogram Temp Stats Airport Information Weather charts Add Link Nearby VenuesMetar ALERT Operation Metar Decoded Social comments

AIRNAV info for KLLJ